createdAt,value
2022-07-29T00:03:44.582Z,64.40
2022-07-29T00:08:47.839Z,64.50
2022-07-29T00:13:51.110Z,65.40
2022-07-29T00:18:53.014Z,66.00
2022-07-29T00:23:56.248Z,66.70
2022-07-29T00:29:23.705Z,66.70
2022-07-29T00:34:20.201Z,66.60
2022-07-29T00:39:23.929Z,67.00
2022-07-29T00:44:26.416Z,64.60
2022-07-29T00:49:28.319Z,64.10
2022-07-29T00:54:31.661Z,62.40
2022-07-29T00:59:34.669Z,61.10
2022-07-29T01:04:37.279Z,59.80
2022-07-29T01:09:46.825Z,60.10
2022-07-29T01:14:50.259Z,59.70
2022-07-29T01:19:58.854Z,58.70
2022-07-29T01:25:34.776Z,58.40
2022-07-29T01:30:40.232Z,58.90
2022-07-29T01:35:46.020Z,58.80
2022-07-29T01:40:52.386Z,59.10
2022-07-29T01:45:59.996Z,59.20
2022-07-29T01:51:06.781Z,59.00
2022-07-29T01:56:11.150Z,60.00
2022-07-29T02:01:15.598Z,60.40
2022-07-29T02:06:19.949Z,60.90
2022-07-29T02:11:21.852Z,61.60
2022-07-29T02:16:27.512Z,62.00
2022-07-29T02:21:31.734Z,62.00
2022-07-29T02:26:34.481Z,62.00
2022-07-29T02:31:38.679Z,62.20
2022-07-29T02:36:42.357Z,62.80
2022-07-29T02:41:47.069Z,63.70
2022-07-29T02:46:56.683Z,64.30
2022-07-29T02:52:01.380Z,64.80
2022-07-29T02:57:35.479Z,65.80
2022-07-29T03:03:06.913Z,66.10
2022-07-29T03:08:11.251Z,67.30
2022-07-29T03:13:14.134Z,68.00
2022-07-29T03:18:25.989Z,69.20
2022-07-29T03:23:27.836Z,70.00
2022-07-29T03:28:37.584Z,70.60
2022-07-29T03:33:42.889Z,71.40
2022-07-29T03:38:47.767Z,72.50
2022-07-29T03:43:52.636Z,73.40
2022-07-29T03:49:00.822Z,74.70
2022-07-29T03:54:07.861Z,75.70
2022-07-29T03:59:16.200Z,76.30
2022-07-29T04:04:19.994Z,77.80
2022-07-29T04:09:22.031Z,79.00
2022-07-29T04:14:31.246Z,80.00
2022-07-29T04:20:00.044Z,80.60
2022-07-29T04:31:10.237Z,83.50
2022-07-29T04:36:28.845Z,84.40
2022-07-29T04:41:34.690Z,85.90
2022-07-29T04:46:39.083Z,86.10
2022-07-29T04:51:42.436Z,87.30
2022-07-29T04:56:52.012Z,87.90
2022-07-29T05:01:54.012Z,90.30
2022-07-29T05:06:58.673Z,90.80
2022-07-29T05:12:00.509Z,89.00
2022-07-29T05:17:02.894Z,87.60
2022-07-29T05:22:09.110Z,86.10
2022-07-29T05:27:13.457Z,83.60
2022-07-29T05:32:20.384Z,81.50
2022-07-29T05:37:23.643Z,80.70
2022-07-29T05:42:27.511Z,79.20
2022-07-29T05:47:29.386Z,78.50
2022-07-29T05:52:32.667Z,76.60
2022-07-29T05:57:34.527Z,76.40
2022-07-29T06:02:38.446Z,74.70
2022-07-29T08:00:38.528Z,59.50
2022-07-29T08:05:45.718Z,60.50
2022-07-29T08:10:50.957Z,60.00
2022-07-29T08:15:56.855Z,59.70
2022-07-29T08:20:59.031Z,60.00
2022-07-29T08:26:01.450Z,60.20
2022-07-29T08:31:04.779Z,58.20
2022-07-29T08:36:08.189Z,59.90
2022-07-29T08:41:13.393Z,59.70
2022-07-29T08:46:27.212Z,61.90
2022-07-29T08:51:32.885Z,62.00
2022-07-29T08:56:37.627Z,61.80
2022-07-29T09:01:45.091Z,58.60
2022-07-29T09:06:51.482Z,60.30
2022-07-29T09:12:07.107Z,59.20
2022-07-29T09:17:45.005Z,61.80
2022-07-29T09:22:53.696Z,62.00
2022-07-29T09:28:05.982Z,61.10
2022-07-29T09:33:14.309Z,57.70
2022-07-29T09:38:18.305Z,57.30
2022-07-29T09:49:07.163Z,57.30
2022-07-29T09:54:32.805Z,56.40
2022-07-29T09:59:50.217Z,55.50
2022-07-29T10:04:53.980Z,55.30
2022-07-29T10:10:01.844Z,55.00
2022-07-29T10:15:19.505Z,54.00
2022-07-29T10:20:26.667Z,55.00
2022-07-29T10:25:28.670Z,54.10
2022-07-29T10:30:38.412Z,54.50
2022-07-29T10:36:13.002Z,54.40
2022-07-29T10:41:44.811Z,53.40
2022-07-29T10:46:51.079Z,53.00
2022-07-29T10:52:05.993Z,53.50
2022-07-29T10:57:53.463Z,52.70
2022-07-29T11:02:51.813Z,52.60
2022-07-29T11:08:40.150Z,52.00
2022-07-29T11:26:13.455Z,51.50
2022-07-29T11:37:33.007Z,51.10
2022-07-29T11:42:51.878Z,50.50
2022-07-29T11:53:32.834Z,50.30
2022-07-29T12:04:07.045Z,52.20
2022-07-29T12:09:14.515Z,52.30
2022-07-29T12:14:28.519Z,51.90
2022-07-29T12:19:46.832Z,52.70
2022-07-29T12:25:11.532Z,51.00
2022-07-29T12:30:22.383Z,50.60
2022-07-29T12:35:27.034Z,49.50
2022-07-29T12:40:34.765Z,50.40
2022-07-29T12:45:47.542Z,50.80
2022-07-29T12:56:41.889Z,51.30
2022-07-29T13:01:44.152Z,48.00
2022-07-29T13:06:51.075Z,49.40
2022-07-29T13:11:59.928Z,49.50
2022-07-29T13:17:11.279Z,51.60
2022-07-29T13:22:18.071Z,51.90
2022-07-29T13:27:26.234Z,52.30
2022-07-29T13:32:30.187Z,54.50
2022-07-29T13:37:32.213Z,55.10
2022-07-29T13:42:35.601Z,53.30
2022-07-29T13:47:37.641Z,55.30
2022-07-29T13:52:44.224Z,55.80
2022-07-29T13:57:50.310Z,57.00
2022-07-29T14:02:54.745Z,56.10
2022-07-29T14:07:59.332Z,54.10
2022-07-29T14:13:24.472Z,56.60
2022-07-29T14:18:27.611Z,54.00
2022-07-29T14:23:31.987Z,53.50
2022-07-29T14:28:50.911Z,53.80
2022-07-29T14:33:52.912Z,55.40
2022-07-29T14:38:54.892Z,57.30
2022-07-29T14:43:59.868Z,57.40
2022-07-29T14:49:01.756Z,57.80
2022-07-29T14:54:07.263Z,60.50
2022-07-29T14:59:26.933Z,61.60
2022-07-29T15:04:32.087Z,61.00
2022-07-29T15:09:36.311Z,62.50
2022-07-29T15:15:04.069Z,65.20
2022-07-29T15:25:48.782Z,63.20
2022-07-29T15:30:52.097Z,61.10
2022-07-29T15:35:59.890Z,58.80
2022-07-29T15:41:05.470Z,58.30
2022-07-29T15:46:08.757Z,56.80
2022-07-29T15:51:15.327Z,58.30
2022-07-29T15:56:33.775Z,56.40
2022-07-29T16:02:29.101Z,56.70
2022-07-29T16:07:53.192Z,57.40
2022-07-29T16:12:55.082Z,60.00
2022-07-29T16:18:00.334Z,61.30
2022-07-29T17:13:58.876Z,71.00
2022-07-29T17:19:05.265Z,71.70
2022-07-29T17:24:07.754Z,72.60
2022-07-29T17:29:11.347Z,73.60
2022-07-29T17:34:13.510Z,74.70
2022-07-29T17:39:15.534Z,75.20
2022-07-29T17:44:18.761Z,74.90
2022-07-29T17:49:25.536Z,76.50
2022-07-29T17:54:27.774Z,78.60
2022-07-29T17:59:40.529Z,99.90
2022-07-29T18:04:50.656Z,99.90
2022-07-29T18:10:15.256Z,99.90
2022-07-29T18:16:26.267Z,99.90
2022-07-29T18:21:38.086Z,99.90
2022-07-29T18:27:02.847Z,99.90
2022-07-29T18:32:07.065Z,99.90
2022-07-29T18:43:04.379Z,99.90
2022-07-29T18:48:43.927Z,99.90
2022-07-29T18:53:46.223Z,99.90
2022-07-29T18:58:49.841Z,99.90
2022-07-29T19:04:02.514Z,99.90
2022-07-29T19:09:04.581Z,99.90
2022-07-29T19:14:09.924Z,99.90
2022-07-29T19:19:13.371Z,99.90
2022-07-29T19:24:15.873Z,99.90
2022-07-29T19:29:18.157Z,99.90
2022-07-29T19:34:21.534Z,99.90
2022-07-29T19:39:34.941Z,99.90
2022-07-29T19:44:37.578Z,99.90
2022-07-29T19:49:40.853Z,99.90
2022-07-29T19:54:42.755Z,99.90
2022-07-29T20:05:09.427Z,99.90
2022-07-29T20:10:11.418Z,99.90
2022-07-29T20:15:17.495Z,99.90
2022-07-29T20:20:20.879Z,99.90
2022-07-29T20:25:22.796Z,99.90
2022-07-29T20:30:24.856Z,99.90
2022-07-29T20:35:28.244Z,99.90
2022-07-29T20:40:30.166Z,99.90
2022-07-29T20:45:32.045Z,99.90
2022-07-29T20:50:35.416Z,99.90
2022-07-29T20:55:44.969Z,99.90
2022-07-29T21:01:02.037Z,99.90
2022-07-29T21:06:05.622Z,99.90
2022-07-29T21:11:07.479Z,99.90
2022-07-29T21:16:09.719Z,99.90
2022-07-29T21:27:04.744Z,99.90
2022-07-29T21:32:38.740Z,99.90
2022-07-29T21:37:40.656Z,99.90
2022-07-29T21:42:44.829Z,99.90
2022-07-29T21:47:47.456Z,99.90
2022-07-29T21:52:55.279Z,99.90
2022-07-29T21:57:58.747Z,99.90
2022-07-29T22:03:04.726Z,99.90
2022-07-29T22:08:14.113Z,99.90
2022-07-29T22:13:17.485Z,99.90
2022-07-29T22:18:21.534Z,99.90
2022-07-29T22:23:48.759Z,99.90
2022-07-29T22:29:07.142Z,99.90
2022-07-29T22:39:30.413Z,99.90
2022-07-29T22:50:12.233Z,99.90
2022-07-29T22:55:43.320Z,99.90
2022-07-29T23:00:51.351Z,99.90
2022-07-29T23:05:53.377Z,99.90
2022-07-29T23:10:55.468Z,99.90
2022-07-29T23:15:58.820Z,99.90
2022-07-29T23:21:04.354Z,99.90
2022-07-29T23:26:08.865Z,99.90
2022-07-29T23:31:15.508Z,99.90
2022-07-29T23:36:19.460Z,99.90
2022-07-29T23:41:21.640Z,99.90
2022-07-29T23:46:43.964Z,99.90
2022-07-29T23:51:47.818Z,99.90
2022-07-29T23:56:49.635Z,99.90
